createdAt,value
2018-12-01T00:02:17.277Z,76.70
2018-12-01T00:04:44.612Z,76.68
2018-12-01T00:07:12.439Z,77.51
2018-12-01T00:09:40.313Z,78.12
2018-12-01T00:12:09.082Z,77.53
2018-12-01T00:14:36.376Z,77.77
2018-12-01T00:17:04.924Z,77.99
2018-12-01T00:19:32.231Z,77.75
2018-12-01T00:21:59.552Z,78.58
2018-12-01T00:24:27.300Z,78.46
2018-12-01T00:26:57.644Z,78.83
2018-12-01T00:29:25.004Z,79.21
2018-12-01T00:31:52.726Z,79.09
2018-12-01T00:34:20.055Z,78.92
2018-12-01T00:36:47.372Z,79.49
2018-12-01T00:39:14.667Z,79.30
2018-12-01T00:41:42.283Z,79.56
2018-12-01T00:44:10.262Z,79.32
2018-12-01T00:46:37.608Z,79.45
2018-12-01T00:49:06.637Z,79.07
2018-12-01T00:51:38.540Z,79.55
2018-12-01T00:54:06.040Z,79.54
2018-12-01T00:56:33.494Z,79.50
2018-12-01T00:59:01.498Z,79.03
2018-12-01T01:01:28.800Z,79.69
2018-12-01T01:03:57.300Z,79.65
2018-12-01T01:06:24.680Z,80.14
2018-12-01T01:08:52.435Z,79.62
2018-12-01T01:11:21.567Z,78.98
2018-12-01T01:13:48.902Z,79.32
2018-12-01T01:16:16.315Z,79.88
2018-12-01T01:18:44.372Z,79.90
2018-12-01T01:21:11.709Z,79.90
2018-12-01T01:23:39.049Z,79.80
2018-12-01T01:26:06.372Z,79.53
2018-12-01T01:28:34.172Z,79.49
2018-12-01T01:31:01.471Z,79.54
2018-12-01T01:33:28.892Z,79.61
2018-12-01T01:35:56.500Z,79.71
2018-12-01T01:38:23.849Z,79.82
2018-12-01T01:40:56.412Z,80.17
2018-12-01T01:43:24.512Z,79.72
2018-12-01T01:45:52.332Z,79.95
2018-12-01T01:48:19.696Z,80.40
2018-12-01T01:50:47.024Z,79.88
2018-12-01T01:53:14.762Z,80.15
2018-12-01T01:55:42.072Z,80.12
2018-12-01T01:58:09.405Z,80.18
2018-12-01T02:00:36.776Z,80.46
2018-12-01T02:03:04.446Z,80.70
2018-12-01T02:05:31.769Z,80.23
2018-12-01T02:07:59.084Z,80.02
2018-12-01T02:10:26.441Z,80.60
2018-12-01T02:12:54.175Z,80.76
2018-12-01T02:15:21.512Z,80.81
2018-12-01T02:17:48.861Z,80.61
2018-12-01T02:20:16.259Z,80.85
2018-12-01T02:22:43.562Z,80.71
2018-12-01T02:25:10.890Z,80.61
2018-12-01T02:27:38.235Z,80.47
2018-12-01T02:30:06.346Z,80.67
2018-12-01T02:32:33.721Z,80.92
2018-12-01T02:35:01.088Z,80.19
2018-12-01T02:37:28.419Z,80.40
2018-12-01T02:39:56.470Z,80.11
2018-12-01T02:42:24.561Z,80.52
2018-12-01T02:44:51.983Z,80.42
2018-12-01T02:47:19.328Z,79.87
2018-12-01T02:49:47.114Z,79.81
2018-12-01T02:52:14.450Z,79.87
2018-12-01T02:54:41.780Z,80.33
2018-12-01T02:57:09.099Z,79.69
2018-12-01T02:59:36.913Z,79.39
2018-12-01T03:02:04.269Z,79.09
2018-12-01T03:04:31.606Z,78.77
2018-12-01T03:06:58.946Z,78.70
2018-12-01T03:09:26.718Z,78.63
2018-12-01T03:11:54.043Z,78.83
2018-12-01T03:14:22.255Z,78.38
2018-12-01T03:16:50.283Z,79.44
2018-12-01T03:19:19.241Z,78.98
2018-12-01T03:21:47.544Z,78.41
2018-12-01T03:24:14.875Z,78.44
2018-12-01T03:26:42.607Z,78.85
2018-12-01T03:29:10.027Z,78.30
2018-12-01T03:31:37.354Z,78.80
2018-12-01T03:34:05.915Z,78.62
2018-12-01T03:36:33.255Z,78.68
2018-12-01T03:39:00.594Z,78.50
2018-12-01T03:41:27.935Z,78.34
2018-12-01T03:43:55.660Z,78.04
2018-12-01T03:46:22.996Z,78.27
2018-12-01T03:48:50.305Z,78.33
2018-12-01T03:51:17.696Z,78.17
2018-12-01T03:53:48.042Z,78.15
2018-12-01T03:56:15.340Z,78.12
2018-12-01T03:58:42.638Z,78.31
2018-12-01T04:01:10.263Z,78.17
2018-12-01T04:03:38.582Z,78.09
2018-12-01T04:06:05.877Z,78.64
2018-12-01T04:08:33.208Z,78.46
2018-12-01T04:11:00.861Z,78.74
2018-12-01T04:13:28.167Z,78.45
2018-12-01T04:15:55.502Z,78.27
2018-12-01T04:18:22.824Z,78.62
2018-12-01T04:20:51.059Z,78.41
2018-12-01T04:23:18.487Z,78.78
2018-12-01T04:25:45.771Z,78.43
2018-12-01T04:28:13.128Z,78.87
2018-12-01T04:30:40.766Z,78.04
2018-12-01T04:33:08.140Z,77.69
2018-12-01T04:35:35.468Z,77.62
2018-12-01T04:38:02.852Z,77.55
2018-12-01T04:40:30.636Z,77.75
2018-12-01T04:42:59.872Z,77.83
2018-12-01T04:45:27.218Z,78.61
2018-12-01T04:47:55.159Z,77.61
2018-12-01T04:50:22.483Z,77.97
2018-12-01T04:52:49.818Z,78.08
2018-12-01T04:55:17.203Z,78.28
2018-12-01T04:57:44.901Z,77.90
2018-12-01T05:00:12.187Z,77.93
2018-12-01T05:02:39.596Z,78.23
2018-12-01T05:05:06.897Z,77.94
2018-12-01T05:07:34.459Z,78.25
2018-12-01T05:10:01.785Z,78.61
2018-12-01T05:12:29.133Z,78.13
2018-12-01T05:14:56.479Z,78.15
2018-12-01T05:17:24.205Z,78.31
2018-12-01T05:19:51.587Z,78.66
2018-12-01T05:22:18.883Z,77.98
2018-12-01T05:24:46.176Z,78.08
2018-12-01T05:27:13.831Z,77.80
2018-12-01T05:29:41.194Z,77.71
2018-12-01T05:32:08.479Z,78.12
2018-12-01T05:34:35.803Z,77.86
2018-12-01T05:37:06.459Z,78.15
2018-12-01T05:39:33.809Z,77.96
2018-12-01T05:42:01.124Z,77.92
2018-12-01T05:44:28.491Z,77.97
2018-12-01T05:46:56.280Z,78.54
2018-12-01T05:49:23.584Z,78.42
2018-12-01T05:51:50.916Z,78.48
2018-12-01T05:54:18.668Z,77.82
2018-12-01T05:56:45.984Z,78.45
2018-12-01T05:59:13.273Z,78.24
2018-12-01T06:01:40.583Z,78.40
2018-12-01T06:04:08.391Z,77.64
2018-12-01T06:06:35.695Z,77.83
2018-12-01T06:09:03.092Z,78.19
2018-12-01T06:11:30.436Z,77.98
2018-12-01T06:13:58.182Z,78.22
2018-12-01T06:16:25.519Z,78.04
2018-12-01T06:18:52.825Z,77.81
2018-12-01T06:21:20.151Z,77.76
2018-12-01T06:23:47.445Z,77.90
2018-12-01T06:26:15.703Z,77.84
2018-12-01T06:28:43.021Z,78.41
2018-12-01T06:31:10.775Z,78.17
2018-12-01T06:33:38.072Z,77.66
2018-12-01T06:36:05.402Z,78.02
2018-12-01T06:38:34.051Z,77.71
2018-12-01T06:41:01.421Z,78.16
2018-12-01T06:43:28.749Z,78.05
2018-12-01T06:45:56.390Z,78.42
2018-12-01T06:48:23.723Z,77.87
2018-12-01T06:50:52.163Z,78.67
2018-12-01T06:53:21.013Z,78.16
2018-12-01T06:55:48.338Z,78.70
2018-12-01T06:58:15.692Z,78.49
2018-12-01T07:00:43.032Z,78.81
2018-12-01T07:03:10.843Z,78.80
2018-12-01T07:05:38.179Z,78.48
2018-12-01T07:08:05.540Z,78.52
2018-12-01T07:10:33.199Z,78.49
2018-12-01T07:13:00.580Z,77.44
2018-12-01T07:15:29.006Z,78.16
2018-12-01T07:17:56.853Z,78.05
2018-12-01T07:20:24.203Z,77.75
2018-12-01T07:22:51.507Z,78.23
2018-12-01T07:25:19.275Z,77.79
2018-12-01T07:27:46.571Z,77.70
2018-12-01T07:30:13.877Z,77.22
2018-12-01T07:32:41.657Z,77.57
2018-12-01T07:35:09.256Z,77.86
2018-12-01T07:37:37.269Z,77.46
2018-12-01T07:40:05.730Z,77.31
2018-12-01T07:42:33.083Z,77.56
2018-12-01T07:45:00.393Z,77.67
2018-12-01T07:47:28.460Z,78.00
2018-12-01T07:49:55.842Z,77.20
2018-12-01T07:52:23.239Z,77.75
2018-12-01T07:54:50.978Z,77.11
2018-12-01T07:57:18.316Z,77.40
2018-12-01T07:59:45.646Z,77.75
2018-12-01T08:02:13.438Z,77.77
2018-12-01T08:04:40.820Z,77.17
2018-12-01T08:07:09.227Z,77.07
2018-12-01T08:09:39.277Z,77.14
2018-12-01T08:12:06.679Z,77.07
2018-12-01T08:14:34.068Z,76.49
2018-12-01T08:17:02.590Z,76.43
2018-12-01T08:19:29.951Z,76.26
2018-12-01T08:21:57.311Z,75.99
2018-12-01T08:24:24.616Z,76.22
2018-12-01T08:26:51.947Z,76.03
2018-12-01T08:29:20.391Z,76.00
2018-12-01T08:31:48.366Z,75.79
2018-12-01T08:34:15.716Z,75.23
2018-12-01T08:36:43.595Z,75.37
2018-12-01T08:39:12.282Z,75.47
2018-12-01T08:41:39.628Z,75.39
2018-12-01T08:44:07.359Z,75.24
2018-12-01T08:46:34.781Z,74.92
2018-12-01T08:49:02.218Z,74.86
2018-12-01T08:51:29.862Z,74.60
2018-12-01T08:53:57.240Z,74.54
2018-12-01T08:56:24.613Z,74.76
2018-12-01T08:58:52.251Z,74.83
2018-12-01T09:01:19.575Z,74.66
2018-12-01T09:03:46.979Z,75.14
2018-12-01T09:06:14.621Z,74.62
2018-12-01T09:08:41.963Z,74.51
2018-12-01T09:11:09.335Z,74.65
2018-12-01T09:13:37.693Z,75.05
2018-12-01T09:16:05.017Z,74.15
2018-12-01T09:18:32.319Z,74.65
2018-12-01T09:21:01.342Z,74.13
2018-12-01T09:23:29.395Z,73.48
2018-12-01T09:25:56.787Z,73.82
2018-12-01T09:28:25.087Z,73.35
2018-12-01T09:30:53.463Z,73.46
2018-12-01T09:33:21.458Z,72.61
2018-12-01T09:35:49.283Z,72.58
2018-12-01T09:38:16.607Z,72.07
2018-12-01T09:40:44.841Z,71.41
2018-12-01T09:43:13.342Z,70.53
2018-12-01T09:45:40.644Z,69.95
2018-12-01T09:48:07.976Z,69.03
2018-12-01T09:50:36.487Z,68.93
2018-12-01T09:53:04.651Z,67.92
2018-12-01T09:55:31.991Z,67.06
2018-12-01T09:57:59.585Z,65.22
2018-12-01T10:00:27.821Z,63.15
2018-12-01T10:02:55.300Z,62.41
2018-12-01T10:05:23.790Z,61.71
2018-12-01T10:07:51.364Z,61.86
2018-12-01T10:10:19.411Z,62.23
2018-12-01T10:12:47.060Z,61.47
2018-12-01T10:15:14.766Z,63.60
2018-12-01T10:17:42.205Z,63.82
2018-12-01T10:20:11.695Z,64.50
2018-12-01T10:22:39.032Z,63.74
2018-12-01T10:25:06.370Z,63.79
2018-12-01T10:27:34.007Z,62.43
2018-12-01T10:30:01.446Z,61.32
2018-12-01T10:32:28.846Z,60.71
2018-12-01T10:34:56.628Z,59.60
2018-12-01T10:37:23.991Z,58.79
2018-12-01T10:39:52.007Z,58.10
2018-12-01T10:42:20.447Z,57.95
2018-12-01T10:44:47.743Z,56.73
2018-12-01T10:47:15.049Z,56.28
2018-12-01T10:49:43.384Z,56.62
2018-12-01T10:52:10.699Z,56.60
2018-12-01T10:54:38.047Z,56.74
2018-12-01T10:57:06.535Z,57.01
2018-12-01T10:59:35.027Z,58.56
2018-12-01T11:02:07.510Z,59.38
2018-12-01T11:04:40.890Z,59.21
2018-12-01T11:07:08.262Z,60.27
2018-12-01T11:09:36.215Z,60.63
2018-12-01T11:12:05.035Z,59.60
2018-12-01T11:14:32.366Z,59.32
2018-12-01T11:17:00.328Z,60.24
2018-12-01T11:19:29.020Z,60.17
2018-12-01T11:21:56.385Z,60.51
2018-12-01T11:24:23.708Z,61.13
2018-12-01T11:26:51.434Z,61.08
2018-12-01T11:29:18.768Z,61.12
2018-12-01T11:31:46.115Z,62.46
2018-12-01T11:34:13.757Z,63.61
2018-12-01T11:36:41.114Z,63.56
2018-12-01T11:39:08.490Z,63.35
2018-12-01T11:41:36.251Z,63.49
2018-12-01T11:44:04.235Z,63.13
2018-12-01T11:46:31.575Z,63.07
2018-12-01T11:48:59.443Z,62.27
2018-12-01T11:51:27.352Z,62.73
2018-12-01T11:53:54.691Z,62.34
2018-12-01T11:56:22.502Z,62.69
2018-12-01T11:58:49.839Z,63.07
2018-12-01T12:01:17.224Z,62.68
2018-12-01T12:03:45.036Z,63.26
2018-12-01T12:06:12.423Z,63.24
2018-12-01T12:08:39.724Z,63.58
2018-12-01T12:11:07.502Z,63.85
2018-12-01T12:13:35.715Z,64.60
2018-12-01T12:16:03.036Z,64.41
2018-12-01T12:18:30.643Z,65.28
2018-12-01T12:20:58.956Z,65.27
2018-12-01T12:23:26.338Z,65.59
2018-12-01T12:25:54.965Z,65.07
2018-12-01T12:28:22.297Z,65.54
2018-12-01T12:30:50.215Z,65.94
2018-12-01T12:33:17.928Z,65.71
2018-12-01T12:35:45.328Z,66.10
2018-12-01T12:38:12.668Z,65.90
2018-12-01T12:40:40.511Z,65.70
2018-12-01T12:43:07.815Z,66.29
2018-12-01T12:45:35.956Z,66.27
2018-12-01T12:48:03.620Z,66.30
2018-12-01T12:50:31.930Z,66.26
2018-12-01T12:53:00.539Z,65.82
2018-12-01T12:55:27.847Z,66.22
2018-12-01T12:57:55.173Z,65.92
2018-12-01T13:00:23.305Z,65.96
2018-12-01T13:02:50.654Z,66.27
2018-12-01T13:05:18.815Z,65.97
2018-12-01T13:07:47.661Z,66.51
2018-12-01T13:10:15.355Z,66.25
2018-12-01T13:12:42.741Z,66.37
2018-12-01T13:15:11.739Z,66.16
2018-12-01T13:17:39.054Z,65.70
2018-12-01T13:20:06.336Z,66.46
2018-12-01T13:22:34.153Z,65.96
2018-12-01T13:25:02.221Z,66.46
2018-12-01T13:27:29.640Z,65.94
2018-12-01T13:29:57.255Z,65.73
2018-12-01T13:32:25.123Z,65.86
2018-12-01T13:34:53.739Z,65.68
2018-12-01T13:37:21.545Z,66.45
2018-12-01T13:39:48.835Z,66.09
2018-12-01T13:42:16.923Z,65.69
2018-12-01T13:44:44.659Z,65.55
2018-12-01T13:47:12.001Z,65.25
2018-12-01T13:49:39.397Z,65.75
2018-12-01T13:52:07.719Z,65.64
2018-12-01T13:54:38.740Z,66.06
2018-12-01T13:57:07.715Z,65.89
2018-12-01T13:59:36.063Z,65.56
2018-12-01T14:02:03.397Z,66.02
2018-12-01T14:04:30.699Z,65.79
2018-12-01T14:06:58.469Z,65.33
2018-12-01T14:09:25.819Z,65.57
2018-12-01T14:11:54.820Z,66.02
2018-12-01T14:14:22.463Z,65.52
2018-12-01T14:16:49.790Z,66.28
2018-12-01T14:19:17.934Z,66.16
2018-12-01T14:21:45.691Z,65.92
2018-12-01T14:24:13.015Z,65.84
2018-12-01T14:26:40.816Z,65.83
2018-12-01T14:29:08.547Z,66.22
2018-12-01T14:31:37.456Z,66.17
2018-12-01T14:34:04.747Z,66.42
2018-12-01T14:36:32.555Z,66.52
2018-12-01T14:38:59.958Z,66.11
2018-12-01T14:41:27.263Z,66.48
2018-12-01T14:43:55.867Z,66.58
2018-12-01T14:46:23.756Z,66.61
2018-12-01T14:48:51.584Z,66.50
2018-12-01T14:51:19.377Z,66.91
2018-12-01T14:53:46.804Z,66.20
2018-12-01T14:56:14.159Z,67.00
2018-12-01T14:58:42.739Z,66.82
2018-12-01T15:01:10.089Z,67.04
2018-12-01T15:03:37.394Z,66.55
2018-12-01T15:06:05.489Z,66.10
2018-12-01T15:08:32.900Z,66.16
2018-12-01T15:11:01.307Z,66.26
2018-12-01T15:13:30.712Z,66.58
2018-12-01T15:15:58.056Z,66.37
2018-12-01T15:18:25.375Z,66.04
2018-12-01T15:20:55.406Z,66.30
2018-12-01T15:23:22.724Z,66.63
2018-12-01T15:25:52.523Z,65.92
2018-12-01T15:28:23.822Z,66.17
2018-12-01T15:30:55.559Z,66.52
2018-12-01T15:33:22.918Z,65.83
2018-12-01T15:35:52.323Z,66.43
2018-12-01T15:38:20.313Z,65.83
2018-12-01T15:40:48.604Z,65.66
2018-12-01T15:43:17.076Z,65.51
2018-12-01T15:45:43.812Z,66.02
2018-12-01T15:48:11.353Z,66.09
2018-12-01T15:50:39.864Z,66.13
2018-12-01T15:53:07.906Z,65.96
2018-12-01T15:55:35.248Z,66.31
2018-12-01T15:58:04.187Z,66.55
2018-12-01T16:00:31.520Z,65.98
2018-12-01T16:02:58.860Z,66.33
2018-12-01T16:05:26.616Z,66.47
2018-12-01T16:07:53.944Z,66.51
2018-12-01T16:10:21.244Z,66.27
2018-12-01T16:12:49.016Z,66.93
2018-12-01T16:15:16.493Z,66.73
2018-12-01T16:17:43.847Z,66.50
2018-12-01T16:20:12.099Z,66.76
2018-12-01T16:22:39.423Z,67.27
2018-12-01T16:25:07.316Z,67.17
2018-12-01T16:27:36.520Z,66.78
2018-12-01T16:30:03.999Z,67.11
2018-12-01T16:32:31.289Z,67.28
2018-12-01T16:34:59.260Z,66.90
2018-12-01T16:37:26.632Z,67.05
2018-12-01T16:39:53.990Z,67.17
2018-12-01T16:42:21.687Z,66.97
2018-12-01T16:44:49.004Z,67.65
2018-12-01T16:47:16.325Z,67.13
2018-12-01T16:49:44.095Z,67.54
2018-12-01T16:52:11.449Z,67.80
2018-12-01T16:54:38.754Z,67.64
2018-12-01T16:57:07.218Z,67.94
2018-12-01T16:59:34.498Z,68.37
2018-12-01T17:02:02.596Z,68.44
2018-12-01T17:04:30.311Z,67.90
2018-12-01T17:06:57.741Z,67.77
2018-12-01T17:09:25.320Z,68.58
2018-12-01T17:11:54.037Z,67.80
2018-12-01T17:14:22.076Z,68.08
2018-12-01T17:16:50.315Z,68.05
2018-12-01T17:19:18.839Z,68.38
2018-12-01T17:21:46.270Z,67.89
2018-12-01T17:24:14.264Z,68.00
2018-12-01T17:26:41.876Z,68.25
2018-12-01T17:29:09.167Z,68.08
2018-12-01T17:31:36.477Z,68.55
2018-12-01T17:34:04.280Z,68.95
2018-12-01T17:36:31.576Z,68.97
2018-12-01T17:38:58.923Z,69.05
2018-12-01T17:41:26.708Z,68.59
2018-12-01T17:43:55.625Z,68.87
2018-12-01T17:46:22.933Z,68.82
2018-12-01T17:48:50.709Z,69.08
2018-12-01T17:51:18.113Z,69.14
2018-12-01T17:53:45.416Z,69.48
2018-12-01T17:56:12.801Z,69.46
2018-12-01T17:58:40.440Z,69.30
2018-12-01T18:01:08.126Z,69.37
2018-12-01T18:03:35.502Z,69.44
2018-12-01T18:06:02.855Z,69.43
2018-12-01T18:08:30.741Z,69.20
2018-12-01T18:10:58.323Z,69.52
2018-12-01T18:13:25.665Z,69.38
2018-12-01T18:15:53.280Z,69.59
2018-12-01T18:18:20.611Z,69.20
2018-12-01T18:20:47.939Z,69.68
2018-12-01T18:23:15.773Z,69.70
2018-12-01T18:25:43.686Z,69.83
2018-12-01T18:28:11.008Z,69.71
2018-12-01T18:30:38.690Z,69.98
2018-12-01T18:33:05.970Z,70.20
2018-12-01T18:35:33.337Z,70.17
2018-12-01T18:38:01.053Z,70.13
2018-12-01T18:40:28.635Z,69.93
2018-12-01T18:42:56.813Z,70.32
2018-12-01T18:45:24.623Z,69.62
2018-12-01T18:47:51.964Z,70.02
2018-12-01T18:50:19.309Z,70.30
2018-12-01T18:52:47.823Z,70.32
2018-12-01T18:55:16.494Z,70.36
2018-12-01T18:57:44.601Z,70.57
2018-12-01T19:00:13.735Z,70.47
2018-12-01T19:02:41.288Z,70.38
2018-12-01T19:05:08.672Z,70.49
2018-12-01T19:07:36.601Z,70.94
2018-12-01T19:10:04.835Z,70.92
2018-12-01T19:12:34.450Z,71.08
2018-12-01T19:15:02.156Z,70.73
2018-12-01T19:17:30.063Z,71.52
2018-12-01T19:19:58.032Z,71.33
2018-12-01T19:22:25.739Z,71.92
2018-12-01T19:24:53.067Z,71.66
2018-12-01T19:27:20.459Z,71.81
2018-12-01T19:29:48.282Z,71.83
2018-12-01T19:32:16.651Z,72.07
2018-12-01T19:34:46.658Z,71.72
2018-12-01T19:37:15.032Z,71.79
2018-12-01T19:39:42.332Z,71.58
2018-12-01T19:42:11.740Z,72.15
2018-12-01T19:44:39.510Z,72.66
2018-12-01T19:47:06.793Z,72.71
2018-12-01T19:49:34.143Z,72.43
2018-12-01T19:52:02.929Z,72.48
2018-12-01T19:54:31.183Z,72.51
2018-12-01T19:56:58.471Z,72.29
2018-12-01T19:59:26.557Z,72.00
2018-12-01T20:01:54.025Z,72.05
2018-12-01T20:04:21.432Z,72.36
2018-12-01T20:06:49.162Z,72.32
2018-12-01T20:09:17.318Z,72.22
2018-12-01T20:11:44.659Z,72.61
2018-12-01T20:14:14.576Z,72.23
2018-12-01T20:16:45.416Z,72.31
2018-12-01T20:19:12.793Z,73.24
2018-12-01T20:21:40.548Z,72.76
2018-12-01T20:24:08.791Z,72.57
2018-12-01T20:26:39.802Z,72.91
2018-12-01T20:29:07.724Z,73.01
2018-12-01T20:31:36.004Z,73.28
2018-12-01T20:34:03.366Z,72.82
2018-12-01T20:36:31.639Z,73.45
2018-12-01T20:38:59.942Z,73.23
2018-12-01T20:41:27.309Z,73.34
2018-12-01T20:43:57.327Z,73.85
2018-12-01T20:46:24.692Z,73.70
2018-12-01T20:48:52.794Z,73.60
2018-12-01T20:51:20.578Z,73.70
2018-12-01T20:53:48.750Z,73.91
2018-12-01T20:56:16.148Z,73.99
2018-12-01T20:58:46.015Z,74.37
2018-12-01T21:01:13.346Z,74.38
2018-12-01T21:03:41.398Z,73.93
2018-12-01T21:06:13.086Z,73.91
2018-12-01T21:08:40.638Z,73.97
2018-12-01T21:11:09.713Z,74.30
2018-12-01T21:13:37.867Z,74.72
2018-12-01T21:16:09.488Z,74.49
2018-12-01T21:18:37.618Z,73.98
2018-12-01T21:21:06.017Z,74.55
2018-12-01T21:23:33.334Z,74.18
2018-12-01T21:26:01.533Z,74.73
2018-12-01T21:28:29.316Z,74.53
2018-12-01T21:30:56.660Z,74.05
2018-12-01T21:33:26.784Z,74.57
2018-12-01T21:35:54.476Z,74.42
2018-12-01T21:38:22.722Z,74.82
2018-12-01T21:40:50.069Z,74.52
2018-12-01T21:43:19.465Z,74.46
2018-12-01T21:45:46.825Z,74.84
2018-12-01T21:48:16.643Z,74.90
2018-12-01T21:50:44.797Z,74.98
2018-12-01T21:53:12.088Z,74.77
2018-12-01T21:55:39.443Z,75.12
2018-12-01T21:58:07.070Z,75.17
2018-12-01T22:00:35.035Z,75.49
2018-12-01T22:03:02.950Z,74.85
2018-12-01T22:05:30.652Z,74.76
2018-12-01T22:07:57.970Z,74.87
2018-12-01T22:10:26.621Z,75.24
2018-12-01T22:12:54.294Z,75.23
2018-12-01T22:15:22.614Z,75.10
2018-12-01T22:17:50.784Z,75.41
2018-12-01T22:20:19.939Z,75.12
2018-12-01T22:22:47.493Z,75.03
2018-12-01T22:25:14.823Z,75.56
2018-12-01T22:27:43.072Z,75.67
2018-12-01T22:30:10.351Z,75.18
2018-12-01T22:32:38.305Z,75.64
2018-12-01T22:35:05.982Z,75.92
2018-12-01T22:37:33.292Z,75.60
2018-12-01T22:40:01.453Z,75.55
2018-12-01T22:42:29.151Z,75.50
2018-12-01T22:44:56.551Z,75.40
2018-12-01T22:47:23.891Z,75.13
2018-12-01T22:49:52.268Z,75.17
2018-12-01T22:52:19.572Z,75.44
2018-12-01T22:54:46.914Z,75.01
2018-12-01T22:57:14.208Z,75.61
2018-12-01T22:59:42.209Z,75.23
2018-12-01T23:02:10.716Z,75.38
2018-12-01T23:04:38.996Z,75.06
2018-12-01T23:07:06.343Z,75.42
2018-12-01T23:09:34.928Z,75.71
2018-12-01T23:12:02.333Z,75.58
2018-12-01T23:14:29.747Z,76.06
2018-12-01T23:16:57.945Z,75.98
2018-12-01T23:19:26.753Z,75.45
2018-12-01T23:21:54.259Z,75.69
2018-12-01T23:24:21.990Z,75.89
2018-12-01T23:26:50.064Z,75.79
2018-12-01T23:29:17.388Z,75.87
2018-12-01T23:31:46.198Z,75.27
2018-12-01T23:34:14.175Z,75.98
2018-12-01T23:36:41.462Z,75.62
2018-12-01T23:39:09.141Z,75.09
2018-12-01T23:41:36.495Z,75.66
2018-12-01T23:44:03.802Z,75.81
2018-12-01T23:46:31.480Z,75.48
2018-12-01T23:48:58.812Z,75.19
2018-12-01T23:51:26.315Z,75.14
2018-12-01T23:53:54.039Z,75.71
2018-12-01T23:56:21.330Z,75.57
2018-12-01T23:58:48.623Z,75.53
